Terminal Aerodrome Forecast
Issued by NWS

Home | Current Version | Previous Version | Text Only | Print | Product List | Glossary On
Versions: 1 2 3 4 5 6 7 8 9 10 11 12 13 14
000
FTUS42 KMLB 251729
TAFTIX
TAF
KTIX 251729Z 2518/2618 11010KT P6SM VCSH SCT030 BKN100
     FM252000 13011KT P6SM FEW040 SCT120
     FM260100 17005KT P6SM FEW050 SCT250=

USA.gov is the U.S. government's official web portal to all federal, state and local government web resources and services.